createdAt,value
2016-11-20T00:00:50.523Z,0
2016-11-20T00:02:01.546Z,0
2016-11-20T00:03:12.581Z,0
2016-11-20T00:04:23.654Z,0
2016-11-20T00:05:34.679Z,0
2016-11-20T00:06:45.736Z,0
2016-11-20T00:07:56.764Z,0
2016-11-20T00:09:07.782Z,0
2016-11-20T00:10:18.803Z,0
2016-11-20T00:11:29.861Z,0
2016-11-20T00:12:40.897Z,0
2016-11-20T00:13:51.928Z,0
2016-11-20T00:15:02.999Z,0
2016-11-20T00:16:14.031Z,0
2016-11-20T00:17:25.302Z,0
2016-11-20T00:18:36.324Z,0
2016-11-20T00:19:47.336Z,0
2016-11-20T00:20:58.411Z,0
2016-11-20T00:22:09.448Z,0
2016-11-20T00:23:20.476Z,0
2016-11-20T00:24:31.495Z,0
2016-11-20T00:25:42.516Z,0
2016-11-20T00:26:53.805Z,0
2016-11-20T00:28:04.899Z,0
2016-11-20T00:29:15.930Z,0
2016-11-20T00:30:26.950Z,0
2016-11-20T00:31:37.981Z,0
2016-11-20T00:32:49.052Z,0
2016-11-20T00:34:00.278Z,0
2016-11-20T00:35:11.506Z,0
2016-11-20T00:36:22.545Z,0
2016-11-20T00:37:33.789Z,0
2016-11-20T00:38:44.869Z,0
2016-11-20T00:39:55.902Z,0
2016-11-20T00:41:06.912Z,0
2016-11-20T00:42:17.939Z,0
2016-11-20T00:43:29.194Z,0
2016-11-20T00:44:40.277Z,0
2016-11-20T00:45:51.301Z,0
2016-11-20T00:47:02.334Z,0
2016-11-20T00:48:13.552Z,0
2016-11-20T00:49:24.574Z,0
2016-11-20T00:50:35.651Z,0
2016-11-20T00:51:46.919Z,0
2016-11-20T00:52:57.946Z,0
2016-11-20T00:54:09.195Z,0
2016-11-20T00:55:20.213Z,0
2016-11-20T00:56:31.295Z,0
2016-11-20T00:57:42.358Z,0
2016-11-20T00:58:53.380Z,0
2016-11-20T01:00:04.411Z,0
2016-11-20T01:01:15.437Z,0
2016-11-20T01:02:26.510Z,0
2016-11-20T01:03:37.529Z,0
2016-11-20T01:04:48.539Z,0
2016-11-20T01:05:59.564Z,0
2016-11-20T01:07:10.595Z,0
2016-11-20T01:08:21.861Z,0
2016-11-20T01:09:32.890Z,0
2016-11-20T01:10:44.304Z,0
2016-11-20T01:11:55.322Z,0
2016-11-20T01:13:06.360Z,0
2016-11-20T01:14:17.431Z,0
2016-11-20T01:15:28.452Z,0
2016-11-20T01:16:39.487Z,0
2016-11-20T01:17:50.533Z,0
2016-11-20T01:19:01.560Z,0
2016-11-20T01:20:12.631Z,0
2016-11-20T01:21:23.859Z,0
2016-11-20T01:22:35.112Z,0
2016-11-20T01:23:46.125Z,0
2016-11-20T01:24:57.326Z,0
2016-11-20T01:26:08.396Z,0
2016-11-20T01:27:19.430Z,0
2016-11-20T01:28:30.453Z,0
2016-11-20T01:29:41.473Z,0
2016-11-20T01:30:52.511Z,0
2016-11-20T01:32:03.581Z,0
2016-11-20T01:33:14.608Z,0
2016-11-20T01:34:25.628Z,0
2016-11-20T01:35:36.660Z,0
2016-11-20T01:36:47.688Z,0
2016-11-20T01:37:58.773Z,0
2016-11-20T01:39:09.801Z,0
2016-11-20T01:40:21.033Z,0
2016-11-20T01:41:32.063Z,0
2016-11-20T01:42:43.292Z,0
2016-11-20T01:43:54.374Z,0
2016-11-20T01:45:05.408Z,0
2016-11-20T01:46:16.446Z,0
2016-11-20T01:47:27.469Z,0
2016-11-20T01:48:38.703Z,0
2016-11-20T01:49:49.772Z,0
2016-11-20T01:51:01.009Z,0
2016-11-20T01:52:12.235Z,0
2016-11-20T01:53:23.251Z,0
2016-11-20T01:54:34.280Z,0
2016-11-20T01:55:45.344Z,0
2016-11-20T01:56:56.380Z,0
2016-11-20T01:58:07.405Z,0
2016-11-20T01:59:18.417Z,0
2016-11-20T02:00:29.432Z,0
2016-11-20T02:01:40.515Z,0
2016-11-20T02:02:51.786Z,0
2016-11-20T02:04:03.019Z,0
2016-11-20T02:05:14.262Z,0
2016-11-20T02:06:25.291Z,0
2016-11-20T02:07:36.372Z,0
2016-11-20T02:08:47.397Z,0
2016-11-20T02:09:58.413Z,0
2016-11-20T02:11:09.449Z,0
2016-11-20T02:12:20.473Z,0
2016-11-20T02:13:31.565Z,0
2016-11-20T02:14:42.596Z,0
2016-11-20T02:15:53.621Z,0
2016-11-20T02:17:04.870Z,0
2016-11-20T02:18:15.908Z,0
2016-11-20T02:19:27.169Z,0
2016-11-20T02:20:38.233Z,0
2016-11-20T02:21:49.468Z,0
2016-11-20T02:23:00.496Z,0
2016-11-20T02:24:11.521Z,0
2016-11-20T02:25:22.593Z,0
2016-11-20T02:26:33.657Z,0
2016-11-20T02:27:44.687Z,0
2016-11-20T02:28:55.717Z,0
2016-11-20T02:30:06.746Z,0
2016-11-20T02:31:17.819Z,0
2016-11-20T02:32:28.845Z,0
2016-11-20T02:33:39.878Z,0
2016-11-20T02:34:50.912Z,0
2016-11-20T02:36:01.952Z,0
2016-11-20T02:37:13.036Z,0
2016-11-20T02:38:24.049Z,0
2016-11-20T02:39:35.085Z,0
2016-11-20T02:40:46.314Z,0
2016-11-20T02:41:57.343Z,0
2016-11-20T02:43:08.426Z,0
2016-11-20T02:44:19.464Z,0
2016-11-20T02:45:30.503Z,0
2016-11-20T02:46:41.535Z,0
2016-11-20T02:47:52.559Z,0
2016-11-20T02:49:03.670Z,0
2016-11-20T02:50:14.695Z,0
2016-11-20T02:51:25.707Z,0
2016-11-20T02:52:36.923Z,0
2016-11-20T02:53:47.948Z,0
2016-11-20T02:54:59.025Z,0
2016-11-20T02:56:10.037Z,0
2016-11-20T02:57:21.068Z,0
2016-11-20T02:58:32.293Z,0
2016-11-20T02:59:43.309Z,0
2016-11-20T03:00:54.389Z,0
2016-11-20T03:02:05.833Z,0
2016-11-20T03:03:17.053Z,0
2016-11-20T03:04:28.084Z,0
2016-11-20T03:05:39.115Z,0
2016-11-20T03:06:50.181Z,0
2016-11-20T03:08:01.245Z,0
2016-11-20T03:09:12.284Z,0
2016-11-20T03:10:23.308Z,0
2016-11-20T03:11:34.342Z,0
2016-11-20T03:12:45.410Z,0
2016-11-20T03:13:56.648Z,0
2016-11-20T03:15:07.679Z,0
2016-11-20T03:16:18.702Z,0
2016-11-20T03:17:29.728Z,0
2016-11-20T03:18:40.803Z,0
2016-11-20T03:19:51.822Z,0
2016-11-20T03:21:02.850Z,0
2016-11-20T03:22:13.880Z,0
2016-11-20T03:23:24.903Z,0
2016-11-20T03:24:36.221Z,0
2016-11-20T03:25:47.251Z,0
2016-11-20T03:26:58.277Z,0
2016-11-20T03:28:09.322Z,0
2016-11-20T03:29:20.354Z,0
2016-11-20T03:30:31.425Z,0
2016-11-20T03:31:42.464Z,0
2016-11-20T03:32:53.492Z,0
2016-11-20T03:34:04.550Z,0
2016-11-20T03:35:15.570Z,0
2016-11-20T03:36:26.848Z,0
2016-11-20T03:37:37.871Z,0
2016-11-20T03:38:48.902Z,0
2016-11-20T03:39:59.926Z,0
2016-11-20T03:41:10.970Z,0
2016-11-20T03:42:22.035Z,0
2016-11-20T03:43:33.059Z,0
2016-11-20T03:44:44.107Z,0
2016-11-20T03:45:55.142Z,0
2016-11-20T03:47:06.154Z,0
2016-11-20T03:48:17.426Z,0
2016-11-20T03:49:28.452Z,0
2016-11-20T03:50:39.484Z,0
2016-11-20T03:51:50.493Z,0
2016-11-20T03:53:01.517Z,0
2016-11-20T03:54:12.600Z,0
2016-11-20T03:55:23.630Z,0
2016-11-20T03:56:34.664Z,0
2016-11-20T03:57:45.701Z,0
2016-11-20T03:58:56.732Z,0
2016-11-20T04:00:08.013Z,0
2016-11-20T04:01:19.231Z,0
2016-11-20T04:02:30.269Z,0
2016-11-20T04:03:41.294Z,0
2016-11-20T04:04:52.340Z,0
2016-11-20T04:06:03.418Z,0
2016-11-20T04:07:14.650Z,0
2016-11-20T04:08:25.880Z,0
2016-11-20T04:09:36.910Z,0
2016-11-20T04:10:47.935Z,0
2016-11-20T04:11:59.017Z,0
2016-11-20T04:13:10.230Z,0
2016-11-20T04:14:21.264Z,0
2016-11-20T04:15:32.495Z,0
2016-11-20T04:16:43.513Z,0
2016-11-20T04:17:54.781Z,0
2016-11-20T04:19:05.827Z,0
2016-11-20T04:20:16.852Z,0
2016-11-20T04:21:27.888Z,0
2016-11-20T04:22:38.911Z,0
2016-11-20T04:23:50.176Z,0
2016-11-20T04:25:01.194Z,0
2016-11-20T04:26:12.435Z,0
2016-11-20T04:27:23.479Z,0
2016-11-20T04:28:34.503Z,0
2016-11-20T04:29:45.574Z,0
2016-11-20T04:30:56.846Z,0
2016-11-20T04:32:08.089Z,0
2016-11-20T04:33:19.109Z,0
2016-11-20T04:34:30.133Z,0
2016-11-20T04:35:41.211Z,0
2016-11-20T04:36:52.239Z,0
2016-11-20T04:38:03.278Z,0
2016-11-20T04:39:14.300Z,0
2016-11-20T04:40:25.321Z,0
2016-11-20T04:41:36.391Z,0
2016-11-20T04:42:47.456Z,0
2016-11-20T04:43:58.489Z,0
2016-11-20T04:45:09.516Z,0
2016-11-20T04:46:20.540Z,0
2016-11-20T04:47:31.604Z,0
2016-11-20T04:48:42.642Z,0
2016-11-20T04:49:53.872Z,0
2016-11-20T04:51:04.935Z,0
2016-11-20T04:52:15.967Z,0
2016-11-20T04:53:27.042Z,0
2016-11-20T04:54:38.278Z,0
2016-11-20T04:55:49.304Z,0
2016-11-20T04:57:00.532Z,0
2016-11-20T04:58:11.590Z,0
2016-11-20T04:59:22.657Z,0
2016-11-20T05:00:33.700Z,0
2016-11-20T05:01:44.923Z,0
2016-11-20T05:02:56.173Z,0
2016-11-20T05:04:07.223Z,0
2016-11-20T05:05:18.307Z,0
2016-11-20T05:06:29.317Z,0
2016-11-20T05:07:40.344Z,0
2016-11-20T05:08:51.358Z,0
2016-11-20T05:10:02.383Z,0
2016-11-20T05:11:13.462Z,0
2016-11-20T05:12:24.677Z,0
2016-11-20T05:13:35.741Z,0
2016-11-20T05:14:46.767Z,0
2016-11-20T05:15:57.839Z,0
2016-11-20T05:17:08.920Z,0
2016-11-20T05:18:19.936Z,0
2016-11-20T05:19:30.967Z,0
2016-11-20T05:20:41.998Z,0
2016-11-20T05:21:53.033Z,0
2016-11-20T05:23:04.117Z,0
2016-11-20T05:24:15.370Z,0
2016-11-20T05:25:26.397Z,0
2016-11-20T05:26:37.628Z,0
2016-11-20T05:27:48.671Z,0
2016-11-20T05:28:59.975Z,0
2016-11-20T05:30:10.996Z,0
2016-11-20T05:31:22.011Z,0
2016-11-20T05:32:33.026Z,0
2016-11-20T05:33:44.256Z,0
2016-11-20T05:34:55.342Z,0
2016-11-20T05:36:06.375Z,0
2016-11-20T05:37:17.405Z,0
2016-11-20T05:38:28.447Z,0
2016-11-20T05:39:39.482Z,0
2016-11-20T05:40:50.554Z,0
2016-11-20T05:42:01.586Z,0
2016-11-20T05:43:12.621Z,0
2016-11-20T05:44:23.643Z,0
2016-11-20T05:45:34.685Z,0
2016-11-20T05:46:45.768Z,0
2016-11-20T05:47:56.821Z,0
2016-11-20T05:49:08.048Z,0
2016-11-20T05:50:19.071Z,0
2016-11-20T05:51:30.295Z,0
2016-11-20T05:52:41.382Z,0
2016-11-20T05:53:52.409Z,0
2016-11-20T05:55:03.634Z,0
2016-11-20T05:56:14.659Z,0
2016-11-20T05:57:25.682Z,0
2016-11-20T05:58:36.752Z,0
2016-11-20T05:59:47.768Z,0
2016-11-20T06:00:58.794Z,0
2016-11-20T06:02:09.851Z,0
2016-11-20T06:03:20.865Z,0
2016-11-20T06:04:32.134Z,0
2016-11-20T06:05:43.148Z,0
2016-11-20T06:06:54.165Z,0
2016-11-20T06:08:05.396Z,0
2016-11-20T06:09:16.627Z,0
2016-11-20T06:10:27.648Z,0
2016-11-20T06:11:38.677Z,0
2016-11-20T06:12:49.719Z,0
2016-11-20T06:14:00.750Z,0
2016-11-20T06:15:11.840Z,0
2016-11-20T06:16:22.870Z,0
2016-11-20T06:17:33.886Z,0
2016-11-20T06:18:44.921Z,0
2016-11-20T06:19:55.948Z,0
2016-11-20T06:21:07.229Z,0
2016-11-20T06:22:18.251Z,0
2016-11-20T06:23:29.265Z,0
2016-11-20T06:24:40.294Z,0
2016-11-20T06:25:51.320Z,0
2016-11-20T06:27:02.400Z,0
2016-11-20T06:28:13.632Z,0
2016-11-20T06:29:24.654Z,4
2016-11-20T06:30:35.703Z,4
2016-11-20T06:31:46.737Z,4
2016-11-20T06:32:57.813Z,0
2016-11-20T06:34:08.849Z,4
2016-11-20T06:35:19.872Z,8
2016-11-20T06:36:31.127Z,8
2016-11-20T06:37:42.164Z,8
2016-11-20T06:38:53.432Z,12
2016-11-20T06:40:04.466Z,16
2016-11-20T06:41:15.486Z,16
2016-11-20T06:42:26.515Z,16
2016-11-20T06:43:37.545Z,24
2016-11-20T06:44:48.634Z,24
2016-11-20T06:45:59.656Z,24
2016-11-20T06:47:10.699Z,32
2016-11-20T06:48:21.739Z,36
2016-11-20T06:49:32.965Z,40
2016-11-20T06:50:44.043Z,44
2016-11-20T06:51:55.276Z,48
2016-11-20T06:53:06.504Z,56
2016-11-20T06:54:17.516Z,64
2016-11-20T06:55:28.543Z,76
2016-11-20T06:56:39.632Z,84
2016-11-20T06:57:50.665Z,96
2016-11-20T06:59:01.701Z,104
2016-11-20T07:00:12.709Z,112
2016-11-20T07:01:23.730Z,116
2016-11-20T07:02:34.811Z,116
2016-11-20T07:03:46.028Z,112
2016-11-20T07:04:57.060Z,104
2016-11-20T07:06:08.097Z,108
2016-11-20T07:07:19.129Z,116
2016-11-20T07:08:30.217Z,128
2016-11-20T07:09:41.254Z,140
2016-11-20T07:10:52.288Z,140
2016-11-20T07:12:03.308Z,144
2016-11-20T07:13:14.539Z,152
2016-11-20T07:14:25.602Z,160
2016-11-20T07:15:36.632Z,176
2016-11-20T07:16:47.873Z,184
2016-11-20T07:17:58.903Z,172
2016-11-20T07:19:09.941Z,152
2016-11-20T07:20:21.019Z,140
2016-11-20T07:21:32.040Z,132
2016-11-20T07:22:43.076Z,124
2016-11-20T07:23:54.097Z,120
2016-11-20T07:25:05.119Z,124
2016-11-20T07:26:16.181Z,132
2016-11-20T07:27:27.244Z,148
2016-11-20T07:28:38.468Z,172
2016-11-20T07:29:49.700Z,212
2016-11-20T07:31:00.732Z,268
2016-11-20T07:32:11.807Z,316
2016-11-20T07:33:22.859Z,352
2016-11-20T07:34:33.889Z,384
2016-11-20T07:35:44.903Z,396
2016-11-20T07:36:55.918Z,392
2016-11-20T07:38:07.040Z,360
2016-11-20T07:39:18.065Z,332
2016-11-20T07:40:29.078Z,336
2016-11-20T07:41:40.111Z,376
2016-11-20T07:42:51.333Z,428
2016-11-20T07:44:02.644Z,476
2016-11-20T07:45:13.665Z,496
2016-11-20T07:46:24.689Z,480
2016-11-20T07:47:35.718Z,436
2016-11-20T07:48:46.735Z,400
2016-11-20T07:49:57.814Z,384
2016-11-20T07:51:09.076Z,364
2016-11-20T07:52:20.100Z,352
2016-11-20T07:53:31.113Z,344
2016-11-20T07:54:42.136Z,348
2016-11-20T07:55:53.199Z,372
2016-11-20T07:57:04.626Z,400
2016-11-20T07:58:15.853Z,416
2016-11-20T07:59:26.871Z,400
2016-11-20T08:00:37.904Z,384
2016-11-20T08:01:48.981Z,372
2016-11-20T08:03:00.014Z,360
2016-11-20T08:04:11.060Z,336
2016-11-20T08:05:22.081Z,308
2016-11-20T08:06:33.115Z,288
2016-11-20T08:07:44.185Z,296
2016-11-20T08:08:55.204Z,324
2016-11-20T08:10:06.225Z,364
2016-11-20T08:11:17.252Z,392
2016-11-20T08:12:28.275Z,380
2016-11-20T08:13:39.351Z,380
2016-11-20T08:14:50.379Z,404
2016-11-20T08:16:01.397Z,424
2016-11-20T08:17:12.417Z,432
2016-11-20T08:18:23.634Z,456
2016-11-20T08:19:34.696Z,476
2016-11-20T08:20:45.711Z,496
2016-11-20T08:21:56.732Z,492
2016-11-20T08:23:07.759Z,452
2016-11-20T08:24:18.998Z,400
2016-11-20T08:25:30.069Z,384
2016-11-20T08:26:41.097Z,376
2016-11-20T08:27:52.127Z,424
2016-11-20T08:29:03.153Z,508
2016-11-20T08:30:14.189Z,580
2016-11-20T08:31:25.284Z,576
2016-11-20T08:32:36.516Z,488
2016-11-20T08:33:47.947Z,396
2016-11-20T08:34:59.175Z,368
2016-11-20T08:36:10.206Z,356
2016-11-20T08:37:21.498Z,356
2016-11-20T08:38:32.523Z,396
2016-11-20T08:39:43.761Z,388
2016-11-20T08:40:54.805Z,392
2016-11-20T08:42:05.842Z,388
2016-11-20T08:43:16.920Z,400
2016-11-20T08:44:27.948Z,384
2016-11-20T08:45:38.976Z,400
2016-11-20T08:46:50.032Z,444
2016-11-20T08:48:01.069Z,476
2016-11-20T08:49:12.149Z,476
2016-11-20T08:50:23.182Z,440
2016-11-20T08:51:34.201Z,384
2016-11-20T08:52:45.237Z,380
2016-11-20T08:53:56.263Z,384
2016-11-20T08:55:07.349Z,372
2016-11-20T08:56:18.376Z,404
2016-11-20T08:57:29.412Z,492
2016-11-20T08:58:40.430Z,512
2016-11-20T08:59:51.687Z,396
2016-11-20T09:01:02.756Z,304
2016-11-20T09:02:13.777Z,336
2016-11-20T09:03:24.796Z,396
2016-11-20T09:04:35.822Z,416
2016-11-20T09:05:46.843Z,388
2016-11-20T09:06:57.927Z,436
2016-11-20T09:08:09.153Z,464
2016-11-20T09:09:20.367Z,484
2016-11-20T09:10:31.596Z,560
2016-11-20T09:11:42.872Z,584
2016-11-20T09:12:54.150Z,552
2016-11-20T09:14:05.177Z,564
2016-11-20T09:15:16.211Z,552
2016-11-20T09:16:27.255Z,528
2016-11-20T09:17:38.275Z,484
2016-11-20T09:18:49.360Z,440
2016-11-20T09:20:00.385Z,400
2016-11-20T09:21:11.404Z,392
2016-11-20T09:22:22.438Z,424
2016-11-20T09:23:33.471Z,452
2016-11-20T09:24:44.784Z,456
2016-11-20T09:25:55.817Z,468
2016-11-20T09:27:06.871Z,524
2016-11-20T09:28:17.911Z,664
2016-11-20T09:29:28.941Z,820
2016-11-20T09:30:40.235Z,948
2016-11-20T09:31:51.251Z,1116
2016-11-20T09:33:02.309Z,1340
2016-11-20T09:34:13.330Z,1512
2016-11-20T09:35:24.357Z,1588
2016-11-20T09:36:35.445Z,1944
2016-11-20T09:37:46.463Z,3192
2016-11-20T09:38:57.495Z,5524
2016-11-20T09:40:08.563Z,9096
2016-11-20T09:41:19.587Z,9352
2016-11-20T09:42:30.671Z,33216
2016-11-20T09:43:42.107Z,56192
2016-11-20T09:44:53.326Z,39872
2016-11-20T09:46:04.362Z,27584
2016-11-20T09:47:15.393Z,61408
2016-11-20T09:48:26.505Z,56832
2016-11-20T09:49:37.535Z,8344
2016-11-20T09:50:48.557Z,5020
2016-11-20T09:51:59.585Z,4424
2016-11-20T09:53:10.619Z,4016
2016-11-20T09:54:21.693Z,4432
2016-11-20T09:55:32.729Z,5544
2016-11-20T09:56:43.765Z,39712
2016-11-20T09:57:54.796Z,30048
2016-11-20T09:59:05.829Z,6648
2016-11-20T10:00:16.914Z,5292
2016-11-20T10:01:27.944Z,4696
2016-11-20T10:02:38.961Z,4144
2016-11-20T10:03:50.000Z,4580
2016-11-20T10:05:01.023Z,4888
2016-11-20T10:06:12.116Z,7100
2016-11-20T10:07:23.153Z,15424
2016-11-20T10:08:34.192Z,16672
2016-11-20T10:09:45.224Z,33568
2016-11-20T10:10:56.245Z,22848
2016-11-20T10:12:07.310Z,12120
2016-11-20T10:13:18.334Z,11452
2016-11-20T10:14:29.367Z,6176
2016-11-20T10:15:40.599Z,5340
2016-11-20T10:16:51.834Z,3304
2016-11-20T10:18:02.924Z,3152
2016-11-20T10:19:14.179Z,3148
2016-11-20T10:20:25.200Z,3072
2016-11-20T10:21:36.231Z,15008
2016-11-20T10:22:47.268Z,46592
2016-11-20T10:23:58.360Z,37504
2016-11-20T10:25:09.425Z,16544
2016-11-20T10:26:20.457Z,23904
2016-11-20T10:27:31.521Z,17728
2016-11-20T10:28:42.559Z,29344
2016-11-20T10:29:53.646Z,16448
2016-11-20T10:31:04.711Z,51488
2016-11-20T10:32:15.737Z,52224
2016-11-20T10:33:26.975Z,52992
2016-11-20T10:34:38.023Z,50880
2016-11-20T10:35:49.139Z,41216
2016-11-20T10:37:00.374Z,10820
2016-11-20T10:38:11.414Z,8304
2016-11-20T10:39:22.493Z,5832
2016-11-20T10:40:33.741Z,5836
2016-11-20T10:41:44.834Z,8676
2016-11-20T10:42:55.870Z,34144
2016-11-20T10:44:06.889Z,8156
2016-11-20T10:45:17.922Z,11268
2016-11-20T10:46:28.962Z,44352
2016-11-20T10:47:40.031Z,11764
2016-11-20T10:48:51.267Z,8228
2016-11-20T10:50:02.313Z,7788
2016-11-20T10:51:13.345Z,5380
2016-11-20T10:52:24.582Z,4120
2016-11-20T10:53:35.673Z,8308
2016-11-20T10:54:46.700Z,6708
2016-11-20T10:55:57.946Z,8464
2016-11-20T10:57:09.167Z,12704
2016-11-20T10:58:20.201Z,20544
2016-11-20T10:59:31.285Z,7280
2016-11-20T11:00:42.308Z,6672
2016-11-20T11:01:53.334Z,6556
2016-11-20T11:03:04.367Z,6600
2016-11-20T11:04:15.391Z,8424
2016-11-20T11:05:26.465Z,10932
2016-11-20T11:06:37.520Z,7108
2016-11-20T11:07:48.540Z,7396
2016-11-20T11:08:59.559Z,11904
2016-11-20T11:10:10.608Z,9656
2016-11-20T11:11:21.691Z,8016
2016-11-20T11:12:32.719Z,8172
2016-11-20T11:13:43.741Z,6712
2016-11-20T11:14:54.763Z,7044
2016-11-20T11:16:05.997Z,12276
2016-11-20T11:17:17.083Z,12884
2016-11-20T11:18:28.105Z,20288
2016-11-20T11:19:39.133Z,28160
2016-11-20T11:20:50.373Z,24672
2016-11-20T11:22:01.417Z,28416
2016-11-20T11:23:12.496Z,21472
2016-11-20T11:24:23.544Z,19424
2016-11-20T11:25:34.591Z,10316
2016-11-20T11:26:45.627Z,7712
2016-11-20T11:27:56.661Z,24800
2016-11-20T11:29:07.741Z,20032
2016-11-20T11:30:18.787Z,8284
2016-11-20T11:31:29.828Z,7148
2016-11-20T11:32:40.860Z,14528
2016-11-20T11:33:51.888Z,9020
2016-11-20T11:35:02.997Z,6808
2016-11-20T11:36:14.073Z,11248
2016-11-20T11:37:25.314Z,10420
2016-11-20T11:38:36.356Z,10996
2016-11-20T11:39:47.390Z,43872
2016-11-20T11:40:58.468Z,8380
2016-11-20T11:42:09.491Z,13524
2016-11-20T11:43:20.548Z,7720
2016-11-20T11:44:31.576Z,7204
2016-11-20T11:45:42.605Z,7756
2016-11-20T11:46:53.682Z,16352
2016-11-20T11:48:04.714Z,5632
2016-11-20T11:49:15.738Z,4128
2016-11-20T11:50:26.774Z,3792
2016-11-20T11:51:37.803Z,3632
2016-11-20T11:52:48.890Z,2904
2016-11-20T11:53:59.926Z,2848
2016-11-20T11:55:10.968Z,2828
2016-11-20T11:56:22.000Z,2928
2016-11-20T11:57:33.024Z,2352
2016-11-20T11:58:44.099Z,2380
2016-11-20T11:59:55.129Z,2144
2016-11-20T12:01:06.380Z,1968
2016-11-20T12:02:17.409Z,1780
2016-11-20T12:03:28.643Z,1852
2016-11-20T12:04:39.728Z,1828
2016-11-20T12:05:50.774Z,1964
2016-11-20T12:07:01.812Z,2228
2016-11-20T12:08:12.851Z,1972
2016-11-20T12:09:23.882Z,2104
2016-11-20T12:10:34.973Z,2380
2016-11-20T12:11:46.002Z,2288
2016-11-20T12:12:57.041Z,1848
2016-11-20T12:14:08.057Z,1740
2016-11-20T12:15:19.096Z,1812
2016-11-20T12:16:30.323Z,1776
2016-11-20T12:17:41.360Z,1672
2016-11-20T12:18:52.393Z,1696
2016-11-20T12:20:03.432Z,1744
2016-11-20T12:21:14.459Z,1608
2016-11-20T12:22:25.748Z,1820
2016-11-20T12:23:36.771Z,1684
2016-11-20T12:24:48.000Z,1944
2016-11-20T12:25:59.236Z,2104
2016-11-20T12:27:10.258Z,2204
2016-11-20T12:28:21.348Z,1836
2016-11-20T12:29:32.386Z,1688
2016-11-20T12:30:43.413Z,1476
2016-11-20T12:31:54.443Z,1928
2016-11-20T12:33:05.486Z,1512
2016-11-20T12:34:16.953Z,1456
2016-11-20T12:35:27.986Z,1520
2016-11-20T12:36:39.033Z,1596
2016-11-20T12:37:50.060Z,1920
2016-11-20T12:39:01.276Z,1836
2016-11-20T12:40:12.563Z,1880
2016-11-20T12:41:23.631Z,2608
2016-11-20T12:42:34.690Z,3516
2016-11-20T12:43:45.726Z,3696
2016-11-20T12:44:56.755Z,2688
2016-11-20T12:46:08.025Z,2216
2016-11-20T12:47:19.047Z,3592
2016-11-20T12:48:30.074Z,4580
2016-11-20T12:49:41.102Z,5244
2016-11-20T12:50:52.321Z,4532
2016-11-20T12:52:03.402Z,5056
2016-11-20T12:53:14.423Z,5112
2016-11-20T12:54:25.480Z,4780
2016-11-20T12:55:36.509Z,5700
2016-11-20T12:56:47.534Z,4828
2016-11-20T12:57:58.599Z,5072
2016-11-20T12:59:09.630Z,5340
2016-11-20T13:00:20.657Z,5044
2016-11-20T13:01:31.888Z,5660
2016-11-20T13:02:43.123Z,4312
2016-11-20T13:03:54.217Z,4324
2016-11-20T13:05:05.451Z,12200
2016-11-20T13:06:16.477Z,4608
2016-11-20T13:07:27.507Z,4608
2016-11-20T13:08:38.549Z,3936
2016-11-20T13:09:49.640Z,3624
2016-11-20T13:11:00.673Z,7516
2016-11-20T13:12:11.702Z,3616
2016-11-20T13:13:22.928Z,4340
2016-11-20T13:14:33.969Z,4284
2016-11-20T13:15:45.100Z,3780
2016-11-20T13:16:56.120Z,3528
2016-11-20T13:18:07.149Z,3604
2016-11-20T13:19:18.207Z,3764
2016-11-20T13:20:29.219Z,3828
2016-11-20T13:21:40.294Z,3896
2016-11-20T13:22:51.309Z,3400
2016-11-20T13:24:02.336Z,3240
2016-11-20T13:25:13.397Z,2548
2016-11-20T13:26:24.435Z,2548
2016-11-20T13:27:35.518Z,3100
2016-11-20T13:28:46.752Z,3944
2016-11-20T13:29:57.798Z,3092
2016-11-20T13:31:08.832Z,2592
2016-11-20T13:32:19.853Z,2996
2016-11-20T13:33:30.936Z,3032
2016-11-20T13:34:42.165Z,2764
2016-11-20T13:35:53.200Z,2496
2016-11-20T13:37:04.454Z,2700
2016-11-20T13:38:15.699Z,2716
2016-11-20T13:39:26.772Z,2528
2016-11-20T13:40:37.811Z,2672
2016-11-20T13:41:48.835Z,2640
2016-11-20T13:42:59.875Z,2472
2016-11-20T13:44:10.913Z,2404
2016-11-20T13:45:21.988Z,2024
2016-11-20T13:46:33.015Z,1596
2016-11-20T13:47:44.054Z,1544
2016-11-20T13:48:55.094Z,2060
2016-11-20T13:50:06.180Z,2144
2016-11-20T13:51:17.267Z,1960
2016-11-20T13:52:28.297Z,1988
2016-11-20T13:53:39.321Z,1920
2016-11-20T13:54:50.553Z,1824
2016-11-20T13:56:01.585Z,2028
2016-11-20T13:57:12.657Z,1932
2016-11-20T13:58:23.697Z,1856
2016-11-20T13:59:34.741Z,1848
2016-11-20T14:00:45.763Z,1616
2016-11-20T14:01:56.807Z,1512
2016-11-20T14:03:07.888Z,1560
2016-11-20T14:04:18.913Z,1520
2016-11-20T14:05:29.960Z,1508
2016-11-20T14:06:40.993Z,1496
2016-11-20T14:07:52.108Z,1420
2016-11-20T14:09:03.198Z,1344
2016-11-20T14:10:14.237Z,1420
2016-11-20T14:11:25.265Z,1528
2016-11-20T14:12:36.301Z,1280
2016-11-20T14:13:47.323Z,964
2016-11-20T14:14:58.426Z,836
2016-11-20T14:16:09.482Z,904
2016-11-20T14:17:20.510Z,1180
2016-11-20T14:18:31.733Z,1144
2016-11-20T14:19:42.750Z,1072
2016-11-20T14:20:53.822Z,1064
2016-11-20T14:22:04.860Z,1124
2016-11-20T14:23:16.085Z,1084
2016-11-20T14:24:27.121Z,972
2016-11-20T14:25:38.163Z,764
2016-11-20T14:26:49.273Z,764
2016-11-20T14:28:00.303Z,844
2016-11-20T14:29:11.317Z,1008
2016-11-20T14:30:22.370Z,956
2016-11-20T14:31:33.411Z,852
2016-11-20T14:32:44.705Z,776
2016-11-20T14:33:55.728Z,720
2016-11-20T14:35:06.767Z,604
2016-11-20T14:36:17.800Z,444
2016-11-20T14:37:28.840Z,396
2016-11-20T14:38:39.923Z,372
2016-11-20T14:39:50.952Z,344
2016-11-20T14:41:01.987Z,368
2016-11-20T14:42:13.022Z,460
2016-11-20T14:43:24.050Z,552
2016-11-20T14:44:35.138Z,524
2016-11-20T14:45:46.374Z,444
2016-11-20T14:46:57.411Z,348
2016-11-20T14:48:08.663Z,344
2016-11-20T14:49:19.694Z,424
2016-11-20T14:50:30.767Z,384
2016-11-20T14:51:41.793Z,356
2016-11-20T14:52:52.833Z,400
2016-11-20T14:54:03.872Z,460
2016-11-20T14:55:14.917Z,468
2016-11-20T14:56:25.988Z,456
2016-11-20T14:57:37.034Z,512
2016-11-20T14:58:48.069Z,548
2016-11-20T14:59:59.090Z,540
2016-11-20T15:01:10.146Z,512
2016-11-20T15:02:21.219Z,472
2016-11-20T15:03:32.446Z,436
2016-11-20T15:04:43.476Z,420
2016-11-20T15:05:54.524Z,392
2016-11-20T15:07:05.562Z,344
2016-11-20T15:08:16.638Z,304
2016-11-20T15:09:27.663Z,280
2016-11-20T15:10:38.891Z,312
2016-11-20T15:11:49.940Z,304
2016-11-20T15:13:00.971Z,316
2016-11-20T15:14:12.260Z,344
2016-11-20T15:15:23.289Z,344
2016-11-20T15:16:34.326Z,320
2016-11-20T15:17:45.358Z,280
2016-11-20T15:18:56.378Z,224
2016-11-20T15:20:07.462Z,148
2016-11-20T15:21:18.490Z,108
2016-11-20T15:22:29.528Z,112
2016-11-20T15:23:40.975Z,104
2016-11-20T15:24:52.015Z,124
2016-11-20T15:26:03.084Z,128
2016-11-20T15:27:14.152Z,132
2016-11-20T15:28:25.198Z,124
2016-11-20T15:29:36.238Z,108
2016-11-20T15:30:47.273Z,96
2016-11-20T15:31:58.362Z,88
2016-11-20T15:33:09.388Z,80
2016-11-20T15:34:20.424Z,72
2016-11-20T15:35:31.481Z,64
2016-11-20T15:36:42.507Z,60
2016-11-20T15:37:53.593Z,60
2016-11-20T15:39:04.631Z,60
2016-11-20T15:40:15.675Z,56
2016-11-20T15:41:26.726Z,52
2016-11-20T15:42:37.764Z,48
2016-11-20T15:43:48.845Z,44
2016-11-20T15:45:00.078Z,36
2016-11-20T15:46:11.308Z,32
2016-11-20T15:47:22.541Z,28
2016-11-20T15:48:33.573Z,20
2016-11-20T15:49:44.855Z,20
2016-11-20T15:50:56.083Z,16
2016-11-20T15:52:07.112Z,12
2016-11-20T15:53:18.145Z,12
2016-11-20T15:54:29.385Z,8
2016-11-20T15:55:40.465Z,8
2016-11-20T15:56:51.508Z,8
2016-11-20T15:58:02.554Z,4
2016-11-20T15:59:13.787Z,4
2016-11-20T16:00:25.018Z,4
2016-11-20T16:01:36.100Z,0
2016-11-20T16:02:47.142Z,0
2016-11-20T16:03:58.183Z,0
2016-11-20T16:05:09.224Z,0
2016-11-20T16:06:20.261Z,0
2016-11-20T16:07:31.339Z,0
2016-11-20T16:08:42.373Z,0
2016-11-20T16:09:53.391Z,0
2016-11-20T16:11:04.628Z,0
2016-11-20T16:12:15.706Z,0
2016-11-20T16:13:26.806Z,0
2016-11-20T16:14:37.854Z,0
2016-11-20T16:15:48.880Z,0
2016-11-20T16:16:59.896Z,0
2016-11-20T16:18:10.929Z,0
2016-11-20T16:19:22.011Z,0
2016-11-20T16:20:33.071Z,0
2016-11-20T16:21:44.109Z,0
2016-11-20T16:22:55.330Z,0
2016-11-20T16:24:06.366Z,0
2016-11-20T16:25:17.444Z,0
2016-11-20T16:26:28.478Z,0
2016-11-20T16:27:39.504Z,0
2016-11-20T16:28:50.532Z,0
2016-11-20T16:30:01.568Z,0
2016-11-20T16:31:12.854Z,0
2016-11-20T16:32:23.893Z,0
2016-11-20T16:33:34.929Z,0
2016-11-20T16:34:45.950Z,0
2016-11-20T16:35:56.998Z,0
2016-11-20T16:37:08.087Z,0
2016-11-20T16:38:19.108Z,0